Terminal Aerodrome Forecast
Issued by NWS Sterling, VA

Current Version | Previous Version | Text Only | Print | Product List | Glossary Off
Versions: 1 2 3 4 5 6 7 8 9 10 11 12 13 14 15 16 17 18 19 20 21 22

000
FTUS41 KLWX 240800 AAA
TAFDCA
TAF AMD
KDCA 240858Z 2409/2506 18014KT P6SM OVC008 WS020/19040KT
     FM241000 18013KT P6SM OVC008
     FM241200 19011KT P6SM OVC003
     FM241400 20012KT P6SM OVC020
     FM241600 20014KT P6SM BKN045
     FM241800 20015G23KT P6SM SCT050
     FM242000 20015G23KT P6SM SCT200
     FM250100 21010KT P6SM BKN250=

USA.gov is the U.S. government's official web portal to all federal, state and local government web resources and services.